createdAt,value
2019-05-12T00:00:39.525Z,6.40
2019-05-12T00:03:08.419Z,6.40
2019-05-12T00:05:38.313Z,6.30
2019-05-12T00:08:08.290Z,6.40
2019-05-12T00:10:38.744Z,6.30
2019-05-12T00:13:08.410Z,6.30
2019-05-12T00:15:38.443Z,6.30
2019-05-12T00:18:09.223Z,6.30
2019-05-12T00:20:38.678Z,6.30
2019-05-12T00:23:23.278Z,6.30
2019-05-12T00:25:38.795Z,6.30
2019-05-12T00:28:07.896Z,6.20
2019-05-12T00:30:39.042Z,6.20
2019-05-12T00:33:09.320Z,6.20
2019-05-12T00:35:38.727Z,6.20
2019-05-12T00:38:09.103Z,6.20
2019-05-12T00:40:39.226Z,6.20
2019-05-12T00:43:09.120Z,6.20
2019-05-12T00:45:39.155Z,6.20
2019-05-12T00:48:09.250Z,6.10
2019-05-12T00:50:38.510Z,6.10
2019-05-12T00:53:08.971Z,6.10
2019-05-12T00:55:38.576Z,6.00
2019-05-12T00:58:08.635Z,6.00
2019-05-12T01:00:40.503Z,6.00
2019-05-12T01:03:09.111Z,5.90
2019-05-12T01:05:38.384Z,5.90
2019-05-12T01:08:09.186Z,5.90
2019-05-12T01:10:39.021Z,5.90
2019-05-12T01:13:08.627Z,5.90
2019-05-12T01:15:37.855Z,5.80
2019-05-12T01:18:09.489Z,5.60
2019-05-12T01:20:38.957Z,5.50
2019-05-12T01:23:09.336Z,5.40
2019-05-12T01:25:39.591Z,5.30
2019-05-12T01:28:08.505Z,5.10
2019-05-12T01:30:39.001Z,5.10
2019-05-12T01:33:08.598Z,5.00
2019-05-12T01:35:38.693Z,5.00
2019-05-12T01:38:08.097Z,5.00
2019-05-12T01:40:39.357Z,4.90
2019-05-12T01:43:08.557Z,5.00
2019-05-12T01:45:38.153Z,5.00
2019-05-12T01:48:08.840Z,5.00
2019-05-12T01:50:38.580Z,5.00
2019-05-12T01:53:08.341Z,5.00
2019-05-12T01:55:38.827Z,5.00
2019-05-12T01:58:08.739Z,4.90
2019-05-12T02:00:38.882Z,4.80
2019-05-12T02:03:09.208Z,4.80
2019-05-12T02:05:39.917Z,4.80
2019-05-12T02:08:10.013Z,4.70
2019-05-12T02:10:39.066Z,4.70
2019-05-12T02:13:09.083Z,4.70
2019-05-12T02:15:38.280Z,4.70
2019-05-12T02:18:09.061Z,4.70
2019-05-12T02:20:38.298Z,4.60
2019-05-12T02:23:08.976Z,4.60
2019-05-12T02:25:38.096Z,4.60
2019-05-12T02:28:09.284Z,4.60
2019-05-12T02:30:40.717Z,4.60
2019-05-12T02:33:07.731Z,4.50
2019-05-12T02:35:36.331Z,4.50
2019-05-12T02:38:05.474Z,4.50
2019-05-12T02:40:35.043Z,4.50
2019-05-12T02:43:05.357Z,4.40
2019-05-12T02:45:35.698Z,4.40
2019-05-12T02:48:05.180Z,4.40
2019-05-12T02:50:36.959Z,4.40
2019-05-12T02:53:07.155Z,4.40
2019-05-12T02:55:36.953Z,4.50
2019-05-12T02:58:06.290Z,4.50
2019-05-12T03:00:36.244Z,4.50
2019-05-12T03:03:08.606Z,4.50
2019-05-12T03:05:40.176Z,4.60
2019-05-12T03:08:08.890Z,4.60
2019-05-12T03:10:37.686Z,4.50
2019-05-12T03:13:06.274Z,4.50
2019-05-12T03:15:37.409Z,4.50
2019-05-12T03:18:06.626Z,4.50
2019-05-12T03:20:35.991Z,4.50
2019-05-12T03:23:06.288Z,4.50
2019-05-12T03:25:36.491Z,4.50
2019-05-12T03:28:08.896Z,4.50
2019-05-12T03:30:39.328Z,4.50
2019-05-12T03:33:09.836Z,4.50
2019-05-12T03:35:42.887Z,4.50
2019-05-12T03:38:07.254Z,4.60
2019-05-12T03:40:38.616Z,4.50
2019-05-12T03:43:06.161Z,4.50
2019-05-12T03:45:36.200Z,4.50
2019-05-12T03:48:06.330Z,4.50
2019-05-12T03:50:36.489Z,4.50
2019-05-12T03:53:09.764Z,4.50
2019-05-12T03:55:41.535Z,4.50
2019-05-12T03:58:07.577Z,4.40
2019-05-12T04:00:36.820Z,4.40
2019-05-12T04:03:06.074Z,4.40
2019-05-12T04:05:36.177Z,4.40
2019-05-12T04:08:06.425Z,4.40
2019-05-12T04:10:36.488Z,4.40
2019-05-12T04:13:06.013Z,4.40
2019-05-12T04:15:35.790Z,4.40
2019-05-12T04:18:05.875Z,4.40
2019-05-12T04:20:36.055Z,4.40
2019-05-12T04:23:06.327Z,4.40
2019-05-12T04:25:51.631Z,4.40
2019-05-12T04:28:05.832Z,4.40
2019-05-12T04:30:35.581Z,4.40
2019-05-12T04:33:05.738Z,4.50
2019-05-12T04:35:35.806Z,4.50
2019-05-12T04:38:05.365Z,4.50
2019-05-12T04:40:35.723Z,4.50
2019-05-12T04:43:06.231Z,4.50
2019-05-12T04:45:36.104Z,4.50
2019-05-12T04:48:06.249Z,4.50
2019-05-12T04:50:36.100Z,4.50
2019-05-12T04:53:06.192Z,4.50
2019-05-12T04:55:35.969Z,4.50
2019-05-12T04:58:06.878Z,4.50
2019-05-12T05:00:36.007Z,4.60
2019-05-12T05:03:06.009Z,4.60
2019-05-12T05:05:36.233Z,4.60
2019-05-12T05:08:05.460Z,4.60
2019-05-12T05:10:34.766Z,4.70
2019-05-12T05:13:05.045Z,4.70
2019-05-12T05:15:35.269Z,4.70
2019-05-12T05:18:06.363Z,4.70
2019-05-12T05:20:34.892Z,4.80
2019-05-12T05:23:04.289Z,4.80
2019-05-12T05:25:34.978Z,4.90
2019-05-12T05:28:04.752Z,4.90
2019-05-12T05:30:34.049Z,5.00
2019-05-12T05:33:04.482Z,5.00
2019-05-12T05:35:39.291Z,5.10
2019-05-12T05:38:04.915Z,5.10
2019-05-12T05:40:35.735Z,5.20
2019-05-12T05:43:12.676Z,5.20
2019-05-12T05:45:35.363Z,5.30
2019-05-12T05:48:09.542Z,5.30
2019-05-12T05:50:34.877Z,5.30
2019-05-12T05:53:04.083Z,5.40
2019-05-12T05:55:34.398Z,5.50
2019-05-12T05:58:10.272Z,5.50
2019-05-12T06:00:35.070Z,5.50
2019-05-12T06:03:05.764Z,5.60
2019-05-12T06:05:38.186Z,5.70
2019-05-12T06:08:09.618Z,5.60
2019-05-12T06:10:40.532Z,5.70
2019-05-12T06:13:07.111Z,5.60
2019-05-12T06:15:40.633Z,5.60
2019-05-12T06:18:06.128Z,5.60
2019-05-12T06:20:37.982Z,5.60
2019-05-12T06:23:05.290Z,5.70
2019-05-12T06:25:46.313Z,5.60
2019-05-12T06:28:08.695Z,5.60
2019-05-12T06:30:44.150Z,5.60
2019-05-12T06:33:06.941Z,5.60
2019-05-12T06:35:42.113Z,5.60
2019-05-12T06:38:05.905Z,5.60
2019-05-12T06:40:40.961Z,5.60
2019-05-12T06:43:05.156Z,5.60
2019-05-12T06:45:41.897Z,5.60
2019-05-12T06:48:04.674Z,5.60
2019-05-12T06:50:38.952Z,5.60
2019-05-12T06:53:05.120Z,5.70
2019-05-12T06:55:39.147Z,5.80
2019-05-12T06:58:05.118Z,5.80
2019-05-12T07:00:35.269Z,5.90
2019-05-12T07:03:04.843Z,6.00
2019-05-12T07:05:38.458Z,6.00
2019-05-12T07:08:04.865Z,6.00
2019-05-12T07:10:39.381Z,6.00
2019-05-12T07:13:05.446Z,6.00
2019-05-12T07:15:38.263Z,6.10
2019-05-12T07:18:10.354Z,6.10
2019-05-12T07:20:39.569Z,6.10
2019-05-12T07:23:08.330Z,6.10
2019-05-12T07:25:37.111Z,6.10
2019-05-12T07:28:07.878Z,6.10
2019-05-12T07:30:36.130Z,6.00
2019-05-12T07:33:05.106Z,6.10
2019-05-12T07:35:35.530Z,6.10
2019-05-12T07:38:04.942Z,6.10
2019-05-12T07:40:37.228Z,6.10
2019-05-12T07:43:04.363Z,6.10
2019-05-12T07:45:34.063Z,6.10
2019-05-12T07:48:07.728Z,6.10
2019-05-12T07:50:34.411Z,6.10
2019-05-12T07:53:04.598Z,6.30
2019-05-12T07:55:34.182Z,6.30
2019-05-12T07:58:13.852Z,6.40
2019-05-12T08:00:34.245Z,6.40
2019-05-12T08:03:08.200Z,6.40
2019-05-12T08:05:33.861Z,6.40
2019-05-12T08:08:10.969Z,6.50
2019-05-12T08:10:34.990Z,6.50
2019-05-12T08:13:04.531Z,6.50
2019-05-12T08:15:35.015Z,6.50
2019-05-12T08:18:07.861Z,6.50
2019-05-12T08:20:34.653Z,6.40
2019-05-12T08:23:08.877Z,6.40
2019-05-12T08:25:35.579Z,6.40
2019-05-12T08:28:14.830Z,6.40
2019-05-12T08:30:45.769Z,6.40
2019-05-12T08:33:09.804Z,6.40
2019-05-12T08:35:38.604Z,6.40
2019-05-12T08:38:07.547Z,6.40
2019-05-12T08:40:39.923Z,6.50
2019-05-12T08:43:10.287Z,6.50
2019-05-12T08:45:37.748Z,6.60
2019-05-12T08:48:10.061Z,6.60
2019-05-12T08:50:37.080Z,6.70
2019-05-12T08:53:05.544Z,6.80
2019-05-12T08:55:35.737Z,6.80
2019-05-12T08:58:04.914Z,6.90
2019-05-12T09:00:44.991Z,6.90
2019-05-12T09:03:09.792Z,7.10
2019-05-12T09:05:39.056Z,7.10
2019-05-12T09:08:07.820Z,7.20
2019-05-12T09:10:36.461Z,7.20
2019-05-12T09:13:05.089Z,7.20
2019-05-12T09:15:34.611Z,7.30
2019-05-12T09:18:04.666Z,7.30
2019-05-12T09:20:39.983Z,7.40
2019-05-12T09:23:05.142Z,7.50
2019-05-12T09:25:34.294Z,7.60
2019-05-12T09:28:03.793Z,7.70
2019-05-12T09:30:33.603Z,7.70
2019-05-12T09:33:04.077Z,7.90
2019-05-12T09:35:34.775Z,8.20
2019-05-12T09:38:05.936Z,8.30
2019-05-12T09:40:35.649Z,8.30
2019-05-12T09:43:08.619Z,8.20
2019-05-12T09:45:40.206Z,8.20
2019-05-12T09:48:09.180Z,8.40
2019-05-12T09:50:36.878Z,8.50
2019-05-12T09:53:11.260Z,8.30
2019-05-12T09:55:35.694Z,8.30
2019-05-12T09:58:05.476Z,8.40
2019-05-12T10:00:36.025Z,8.50
2019-05-12T10:03:08.430Z,8.40
2019-05-12T10:05:40.789Z,8.60
2019-05-12T10:08:05.776Z,8.80
2019-05-12T10:10:40.015Z,8.80
2019-05-12T10:13:05.048Z,8.80
2019-05-12T10:15:33.880Z,8.90
2019-05-12T10:18:06.642Z,8.90
2019-05-12T10:20:35.273Z,8.90
2019-05-12T10:23:04.379Z,8.90
2019-05-12T10:25:33.881Z,9.00
2019-05-12T10:28:11.052Z,9.40
2019-05-12T10:30:34.178Z,9.70
2019-05-12T10:33:04.157Z,9.90
2019-05-12T10:35:35.179Z,9.90
2019-05-12T10:38:06.277Z,10.00
2019-05-12T10:40:33.953Z,10.20
2019-05-12T10:43:04.502Z,10.50
2019-05-12T10:45:35.072Z,10.70
2019-05-12T10:48:04.815Z,10.80
2019-05-12T10:50:34.298Z,10.60
2019-05-12T10:53:04.556Z,10.70
2019-05-12T10:55:34.153Z,10.90
2019-05-12T10:58:06.441Z,10.90
2019-05-12T11:00:34.056Z,10.90
2019-05-12T11:03:10.150Z,10.70
2019-05-12T11:05:34.089Z,10.70
2019-05-12T11:08:08.485Z,10.60
2019-05-12T11:10:34.542Z,10.50
2019-05-12T11:13:08.463Z,10.70
2019-05-12T11:15:34.408Z,11.00
2019-05-12T11:18:04.810Z,11.40
2019-05-12T11:20:34.405Z,11.90
2019-05-12T11:23:03.634Z,12.20
2019-05-12T11:25:34.122Z,12.30
2019-05-12T11:28:03.803Z,12.40
2019-05-12T11:30:34.563Z,12.30
2019-05-12T11:33:04.278Z,12.00
2019-05-12T11:35:34.848Z,11.40
2019-05-12T11:38:04.650Z,11.30
2019-05-12T11:40:34.708Z,11.40
2019-05-12T11:43:04.466Z,11.20
2019-05-12T11:45:33.976Z,10.80
2019-05-12T11:48:10.083Z,10.80
2019-05-12T11:50:34.235Z,10.80
2019-05-12T11:53:04.202Z,10.80
2019-05-12T11:55:34.925Z,10.80
2019-05-12T11:58:09.146Z,10.80
2019-05-12T12:00:38.716Z,10.90
2019-05-12T12:03:18.052Z,10.90
2019-05-12T12:05:38.831Z,10.60
2019-05-12T12:08:07.771Z,10.50
2019-05-12T12:10:39.676Z,10.70
2019-05-12T12:13:07.219Z,10.80
2019-05-12T12:15:36.514Z,10.90
2019-05-12T12:18:13.203Z,10.80
2019-05-12T13:28:22.823Z,13.40
2019-05-12T13:30:50.994Z,13.40
2019-05-12T13:33:19.675Z,13.70
2019-05-12T13:35:50.333Z,13.90
2019-05-12T13:38:18.809Z,14.00
2019-05-12T13:40:47.415Z,14.00
2019-05-12T13:43:19.572Z,13.80
2019-05-12T13:45:46.277Z,13.70
2019-05-12T13:48:19.798Z,13.50
2019-05-12T13:50:47.839Z,13.50
2019-05-12T13:53:16.959Z,13.60
2019-05-12T13:55:49.462Z,13.30
2019-05-12T13:58:17.619Z,13.10
2019-05-12T14:01:00.579Z,13.10
2019-05-12T14:03:16.999Z,13.30
2019-05-12T14:05:50.598Z,13.60
2019-05-12T14:08:17.319Z,13.70
2019-05-12T14:10:53.446Z,13.90
2019-05-12T14:13:16.854Z,14.00
2019-05-12T14:15:46.107Z,14.10
2019-05-12T14:18:20.468Z,14.20
2019-05-12T14:20:50.882Z,14.30
2019-05-12T14:23:16.648Z,14.00
2019-05-12T14:25:45.319Z,13.80
2019-05-12T14:28:16.593Z,13.80
2019-05-12T14:30:47.411Z,13.80
2019-05-12T14:33:18.248Z,13.80
2019-05-12T14:35:46.101Z,13.70
2019-05-12T14:38:19.265Z,13.50
2019-05-12T14:40:45.267Z,13.20
2019-05-12T14:43:16.821Z,13.20
2019-05-12T14:45:44.382Z,13.50
2019-05-12T14:48:13.667Z,13.90
2019-05-12T14:50:44.164Z,14.20
2019-05-12T14:53:14.445Z,14.40
2019-05-12T14:55:43.311Z,14.20
2019-05-12T14:58:15.751Z,13.90
2019-05-12T15:00:44.420Z,13.70
2019-05-12T15:03:16.152Z,13.50
2019-05-12T15:05:47.032Z,13.50
2019-05-12T15:08:20.700Z,13.30
2019-05-12T15:10:44.600Z,13.30
2019-05-12T15:13:13.948Z,13.20
2019-05-12T15:15:56.117Z,13.20
2019-05-12T15:18:22.121Z,13.20
2019-05-12T15:20:51.718Z,13.10
2019-05-12T15:23:23.893Z,12.80
2019-05-12T15:25:51.132Z,12.50
2019-05-12T15:28:20.232Z,12.50
2019-05-12T15:30:50.084Z,12.60
2019-05-12T15:33:18.872Z,12.60
2019-05-12T15:35:48.411Z,12.60
2019-05-12T15:38:17.420Z,12.60
2019-05-12T15:40:46.350Z,12.80
2019-05-12T15:43:17.062Z,12.90
2019-05-12T15:45:48.994Z,12.80
2019-05-12T15:48:18.622Z,12.60
2019-05-12T15:50:47.781Z,12.40
2019-05-12T15:53:21.931Z,12.30
2019-05-12T15:55:55.027Z,12.10
2019-05-12T15:58:24.696Z,12.10
2019-05-12T16:00:58.125Z,12.00
2019-05-12T16:03:34.193Z,11.90
2019-05-12T16:06:10.066Z,11.80
2019-05-12T16:08:40.406Z,11.70
2019-05-12T16:11:14.009Z,11.60
2019-05-12T16:13:53.710Z,11.60
2019-05-12T16:16:16.299Z,11.60
2019-05-12T16:18:50.966Z,11.50
2019-05-12T16:21:22.442Z,11.40
2019-05-12T16:23:53.452Z,11.40
2019-05-12T16:26:25.007Z,11.30
2019-05-12T16:29:02.515Z,11.20
2019-05-12T16:31:25.348Z,11.20
2019-05-12T16:34:01.077Z,11.20
2019-05-12T16:36:28.036Z,11.20
2019-05-12T16:39:00.177Z,11.10
2019-05-12T16:41:29.863Z,11.10
2019-05-12T16:43:58.721Z,11.00
2019-05-12T16:46:27.963Z,11.00
2019-05-12T16:48:57.423Z,11.00
2019-05-12T16:51:26.117Z,11.00
2019-05-12T16:53:55.308Z,10.90
2019-05-12T16:56:27.955Z,10.90
2019-05-12T16:58:54.763Z,10.90
2019-05-12T17:01:28.044Z,10.80
2019-05-12T17:03:55.135Z,10.80
2019-05-12T17:06:28.764Z,10.80
2019-05-12T17:08:55.861Z,10.70
2019-05-12T17:11:30.810Z,10.70
2019-05-12T17:14:02.228Z,10.70
2019-05-12T17:16:41.564Z,10.60
2019-05-12T17:19:06.240Z,10.60
2019-05-12T17:21:35.964Z,10.60
2019-05-12T17:24:04.674Z,10.50
2019-05-12T17:26:34.150Z,10.50
2019-05-12T17:29:04.270Z,10.50
2019-05-12T17:31:35.137Z,10.50
2019-05-12T17:34:10.429Z,10.40
2019-05-12T17:36:41.820Z,10.40
2019-05-12T17:39:17.868Z,10.40
2019-05-12T17:41:46.596Z,10.40
2019-05-12T17:44:15.200Z,10.30
2019-05-12T17:46:44.243Z,10.30
2019-05-12T17:49:16.033Z,10.30
2019-05-12T17:51:45.050Z,10.20
2019-05-12T17:54:21.630Z,10.20
2019-05-12T17:56:45.831Z,10.20
2019-05-12T17:59:23.507Z,10.20
2019-05-12T18:01:45.602Z,10.10
2019-05-12T18:04:14.459Z,10.10
2019-05-12T18:06:45.204Z,10.10
2019-05-12T18:09:19.897Z,10.10
2019-05-12T18:11:46.283Z,10.00
2019-05-12T18:14:17.424Z,10.00
2019-05-12T18:16:46.230Z,10.00
2019-05-12T18:19:19.491Z,9.90
2019-05-12T18:21:48.033Z,9.90
2019-05-12T18:24:17.380Z,9.80
2019-05-12T18:26:56.686Z,9.80
2019-05-12T18:29:18.029Z,9.80
2019-05-12T18:31:46.645Z,9.70
2019-05-12T18:34:15.479Z,9.70
2019-05-12T18:36:49.053Z,9.60
2019-05-12T18:39:15.444Z,9.60
2019-05-12T18:41:44.562Z,9.50
2019-05-12T18:44:25.014Z,9.40
2019-05-12T18:46:45.262Z,9.40
2019-05-12T18:49:16.008Z,9.30
2019-05-12T18:51:49.136Z,9.30
2019-05-12T18:54:17.815Z,9.20
2019-05-12T18:56:52.331Z,9.10
2019-05-12T18:59:18.810Z,9.00
2019-05-12T19:01:49.162Z,9.00
2019-05-12T19:04:18.453Z,8.90
2019-05-12T19:06:47.207Z,8.80
2019-05-12T19:09:15.902Z,8.80
2019-05-12T19:11:46.729Z,8.70
2019-05-12T19:14:14.993Z,8.60
2019-05-12T19:16:43.808Z,8.60
2019-05-12T19:19:16.440Z,8.60
2019-05-12T19:21:43.771Z,8.50
2019-05-12T19:24:17.603Z,8.50
2019-05-12T19:26:44.001Z,8.40
2019-05-12T19:29:14.279Z,8.40
2019-05-12T19:31:51.961Z,8.30
2019-05-12T19:34:19.838Z,8.30
2019-05-12T19:36:47.946Z,8.20
2019-05-12T19:39:14.039Z,8.20
2019-05-12T19:41:43.655Z,8.20
2019-05-12T19:44:13.416Z,8.20
2019-05-12T19:46:45.850Z,8.10
2019-05-12T19:49:12.651Z,8.10
2019-05-12T19:51:43.624Z,8.10
2019-05-12T19:54:13.820Z,8.10
2019-05-12T19:56:43.384Z,8.00
2019-05-12T19:59:14.494Z,8.00
2019-05-12T20:01:44.568Z,8.00
2019-05-12T20:04:14.139Z,8.00
2019-05-12T20:06:44.082Z,8.00
2019-05-12T20:09:14.661Z,8.00
2019-05-12T20:11:43.164Z,7.90
2019-05-12T20:14:16.552Z,8.00
2019-05-12T20:16:43.918Z,7.90
2019-05-12T20:19:13.590Z,7.90
2019-05-12T20:21:43.841Z,7.90
2019-05-12T20:24:14.338Z,7.90
2019-05-12T20:26:45.506Z,7.90
2019-05-12T20:29:14.396Z,7.80
2019-05-12T20:31:48.270Z,7.90
2019-05-12T20:34:13.978Z,7.80
2019-05-12T20:36:44.495Z,7.80
2019-05-12T20:39:16.854Z,7.80
2019-05-12T20:41:44.434Z,7.80
2019-05-12T20:44:17.214Z,7.80
2019-05-12T20:46:43.412Z,7.80
2019-05-12T20:49:14.745Z,7.80
2019-05-12T20:51:44.411Z,7.80
2019-05-12T20:54:17.934Z,7.70
2019-05-12T20:56:45.242Z,7.70
2019-05-12T20:59:22.057Z,7.80
2019-05-12T21:01:44.463Z,7.80
2019-05-12T21:04:14.245Z,7.80
2019-05-12T21:06:43.251Z,7.70
2019-05-12T21:09:14.379Z,7.70
2019-05-12T21:11:44.188Z,7.70
2019-05-12T21:14:14.755Z,7.70
2019-05-12T21:16:44.918Z,7.70
2019-05-12T21:19:14.316Z,7.70
2019-05-12T21:21:44.397Z,7.70
2019-05-12T21:24:14.238Z,7.70
2019-05-12T21:26:44.111Z,7.70
2019-05-12T21:29:13.724Z,7.60
2019-05-12T21:31:44.561Z,7.60
2019-05-12T21:34:20.917Z,7.60
2019-05-12T21:36:44.386Z,7.60
2019-05-12T21:39:13.979Z,7.70
2019-05-12T21:41:50.431Z,7.70
2019-05-12T21:44:14.998Z,7.60
2019-05-12T21:46:46.837Z,7.60
2019-05-12T21:49:15.508Z,7.60
2019-05-12T21:51:44.755Z,7.60
2019-05-12T21:54:13.726Z,7.50
2019-05-12T21:56:44.701Z,7.50
2019-05-12T21:59:15.550Z,7.50
2019-05-12T22:01:45.897Z,7.50
2019-05-12T22:04:14.713Z,7.40
2019-05-12T22:06:43.900Z,7.40
2019-05-12T22:09:14.678Z,7.40
2019-05-12T22:11:50.467Z,7.30
2019-05-12T22:14:13.842Z,7.30
2019-05-12T22:16:46.817Z,7.20
2019-05-12T22:19:14.887Z,7.20
2019-05-12T22:21:49.104Z,7.20
2019-05-12T22:24:14.602Z,7.20
2019-05-12T22:26:46.473Z,7.10
2019-05-12T22:29:13.710Z,7.10
2019-05-12T22:31:46.442Z,7.10
2019-05-12T22:34:12.899Z,7.00
2019-05-12T22:36:45.448Z,7.00
2019-05-12T22:39:14.140Z,6.90
2019-05-12T22:41:42.470Z,6.90
2019-05-12T22:44:18.697Z,6.80
2019-05-12T22:46:43.447Z,6.80
2019-05-12T22:49:16.887Z,6.70
2019-05-12T22:51:43.575Z,6.70
2019-05-12T22:54:13.597Z,6.70
2019-05-12T22:56:44.193Z,6.70
2019-05-12T22:59:13.742Z,6.60
2019-05-12T23:01:46.300Z,6.60
2019-05-12T23:04:14.218Z,6.60
2019-05-12T23:06:46.525Z,6.50
2019-05-12T23:09:13.560Z,6.50
2019-05-12T23:11:42.317Z,6.40
2019-05-12T23:14:12.523Z,6.40
2019-05-12T23:16:41.412Z,6.30
2019-05-12T23:19:12.282Z,6.30
2019-05-12T23:21:43.903Z,6.30
2019-05-12T23:24:14.135Z,6.30
2019-05-12T23:26:47.845Z,6.30
2019-05-12T23:29:14.782Z,6.30
2019-05-12T23:31:43.387Z,6.20
2019-05-12T23:34:14.401Z,6.20
2019-05-12T23:36:44.016Z,6.20
2019-05-12T23:39:14.330Z,6.20
2019-05-12T23:41:43.669Z,6.20
2019-05-12T23:44:13.547Z,6.20
2019-05-12T23:46:43.733Z,6.10
2019-05-12T23:49:14.355Z,6.10
2019-05-12T23:51:43.899Z,6.10
2019-05-12T23:54:14.337Z,6.00
2019-05-12T23:56:44.442Z,6.00
2019-05-12T23:59:13.625Z,5.90
